createdAt,value
2018-02-08T00:02:05.702Z,40.22
2018-02-08T00:04:33.654Z,55.88
2018-02-08T00:07:01.623Z,47.72
2018-02-08T00:09:29.594Z,42.70
2018-02-08T00:11:57.586Z,48.53
2018-02-08T00:14:25.538Z,43.75
2018-02-08T00:16:53.510Z,43.75
2018-02-08T00:19:21.502Z,47.88
2018-02-08T00:21:49.455Z,45.97
2018-02-08T00:24:17.416Z,47.25
2018-02-08T00:26:45.398Z,47.15
2018-02-08T00:29:13.343Z,42.85
2018-02-08T00:31:41.324Z,46.37
2018-02-08T00:34:09.279Z,45.28
2018-02-08T00:36:37.243Z,47.40
2018-02-08T00:39:05.217Z,39.97
2018-02-08T00:41:33.185Z,43.58
2018-02-08T00:44:01.119Z,48.90
2018-02-08T00:46:29.096Z,44.33
2018-02-08T00:48:57.051Z,45.63
2018-02-08T00:51:25.028Z,52.10
2018-02-08T00:53:54.078Z,43.63
2018-02-08T00:56:22.022Z,48.75
2018-02-08T00:58:50.027Z,49.95
2018-02-08T01:01:18.039Z,49.97
2018-02-08T01:03:45.998Z,41.45
2018-02-08T01:06:13.963Z,47.60
2018-02-08T01:08:41.915Z,49.15
2018-02-08T01:11:09.869Z,45.95
2018-02-08T01:13:38.883Z,46.90
2018-02-08T01:16:06.835Z,57.35
2018-02-08T01:18:34.863Z,46.28
2018-02-08T01:21:03.850Z,52.15
2018-02-08T01:23:31.847Z,40.80
2018-02-08T01:25:59.907Z,49.92
2018-02-08T01:28:27.861Z,52.38
2018-02-08T01:30:55.830Z,40.35
2018-02-08T01:33:23.778Z,41.47
2018-02-08T01:35:51.726Z,41.15
2018-02-08T01:38:19.704Z,48.47
2018-02-08T01:40:47.655Z,52.70
2018-02-08T01:43:15.609Z,47.55
2018-02-08T01:45:43.581Z,45.85
2018-02-08T01:48:11.530Z,40.28
2018-02-08T01:50:39.475Z,42.42
2018-02-08T01:53:07.426Z,53.55
2018-02-08T01:55:35.455Z,43.13
2018-02-08T01:58:03.431Z,50.80
2018-02-08T02:00:31.407Z,49.65
2018-02-08T02:02:59.366Z,41.72
2018-02-08T02:05:28.422Z,46.03
2018-02-08T02:07:56.429Z,42.83
2018-02-08T02:10:24.482Z,52.47
2018-02-08T02:12:52.505Z,42.33
2018-02-08T02:15:20.450Z,50.83
2018-02-08T02:17:48.414Z,47.45
2018-02-08T02:20:16.410Z,45.65
2018-02-08T02:22:44.387Z,53.63
2018-02-08T02:25:12.392Z,46.33
2018-02-08T02:27:40.366Z,46.30
2018-02-08T02:30:08.323Z,47.65
2018-02-08T02:32:36.263Z,49.60
2018-02-08T02:35:04.391Z,60.03
2018-02-08T02:37:32.431Z,44.55
2018-02-08T02:40:00.407Z,45.45
2018-02-08T02:42:28.372Z,43.20
2018-02-08T02:44:56.327Z,45.65
2018-02-08T02:47:24.330Z,49.28
2018-02-08T02:49:52.302Z,54.55
2018-02-08T02:52:20.321Z,43.35
2018-02-08T02:54:48.280Z,44.45
2018-02-08T02:57:16.237Z,44.53
2018-02-08T02:59:44.223Z,55.00
2018-02-08T03:02:12.213Z,52.05
2018-02-08T03:04:40.228Z,48.13
2018-02-08T03:07:08.187Z,42.00
2018-02-08T03:09:36.211Z,51.03
2018-02-08T03:12:04.151Z,45.35
2018-02-08T03:14:32.125Z,49.05
2018-02-08T03:17:00.122Z,41.83
2018-02-08T03:19:28.054Z,44.05
2018-02-08T03:21:55.997Z,50.88
2018-02-08T03:24:23.953Z,49.40
2018-02-08T03:26:51.935Z,46.10
2018-02-08T03:29:19.923Z,49.70
2018-02-08T03:31:47.868Z,53.20
2018-02-08T03:34:15.814Z,41.85
2018-02-08T03:36:43.782Z,45.83
2018-02-08T03:39:11.978Z,44.72
2018-02-08T03:41:39.917Z,47.83
2018-02-08T03:44:07.900Z,47.60
2018-02-08T03:46:35.863Z,46.35
2018-02-08T03:49:03.855Z,48.28
2018-02-08T03:51:31.794Z,53.72
2018-02-08T03:53:59.785Z,53.78
2018-02-08T03:56:27.769Z,41.13
2018-02-08T03:58:55.766Z,44.05
2018-02-08T04:01:24.790Z,51.05
2018-02-08T04:03:52.737Z,49.35
2018-02-08T04:06:20.713Z,49.78
2018-02-08T04:08:48.655Z,53.05
2018-02-08T04:11:16.630Z,49.85
2018-02-08T04:13:44.595Z,45.20
2018-02-08T04:16:12.563Z,47.55
2018-02-08T04:18:40.562Z,50.95
2018-02-08T04:21:08.534Z,41.33
2018-02-08T04:23:36.482Z,53.85
2018-02-08T04:26:04.438Z,50.12
2018-02-08T04:28:32.422Z,50.15
2018-02-08T04:31:00.378Z,50.33
2018-02-08T04:33:28.340Z,52.83
2018-02-08T04:35:56.311Z,49.03
2018-02-08T04:38:30.355Z,42.83
2018-02-08T04:41:04.505Z,46.45
2018-02-08T04:43:38.605Z,52.55
2018-02-08T04:46:12.739Z,51.55
2018-02-08T04:48:40.711Z,48.83
2018-02-08T04:51:08.678Z,47.40
2018-02-08T04:53:36.672Z,49.38
2018-02-08T04:56:04.655Z,48.22
2018-02-08T04:58:33.482Z,53.80
2018-02-08T05:01:01.443Z,63.50
2018-02-08T05:03:29.427Z,43.95
2018-02-08T05:05:57.410Z,56.13
2018-02-08T05:08:25.366Z,57.15
2018-02-08T05:10:53.335Z,59.63
2018-02-08T05:13:21.290Z,60.25
2018-02-08T05:15:49.235Z,53.78
2018-02-08T05:18:17.190Z,47.30
2018-02-08T05:20:45.118Z,56.35
2018-02-08T05:23:13.102Z,46.00
2018-02-08T05:25:41.067Z,56.08
2018-02-08T05:28:08.994Z,50.42
2018-02-08T05:30:37.031Z,59.45
2018-02-08T05:33:04.984Z,43.53
2018-02-08T05:35:32.969Z,52.67
2018-02-08T05:38:01.011Z,55.45
2018-02-08T05:40:29.043Z,53.72
2018-02-08T05:42:57.034Z,54.63
2018-02-08T05:45:24.998Z,51.13
2018-02-08T05:47:54.011Z,56.53
2018-02-08T05:50:21.968Z,56.67
2018-02-08T05:52:50.042Z,52.28
2018-02-08T05:55:18.041Z,55.05
2018-02-08T05:57:45.990Z,49.60
2018-02-08T06:00:14.000Z,50.83
2018-02-08T06:02:41.938Z,58.75
2018-02-08T06:05:09.898Z,50.85
2018-02-08T06:07:37.943Z,56.67
2018-02-08T06:10:05.891Z,47.10
2018-02-08T06:12:33.864Z,56.92
2018-02-08T06:15:01.831Z,61.88
2018-02-08T06:17:29.783Z,70.10
2018-02-08T06:19:57.726Z,54.13
2018-02-08T06:22:25.703Z,57.72
2018-02-08T06:24:53.682Z,55.97
2018-02-08T06:27:21.650Z,70.85
2018-02-08T06:29:49.626Z,59.58
2018-02-08T06:32:17.587Z,63.30
2018-02-08T06:34:45.563Z,56.47
2018-02-08T06:37:13.523Z,72.75
2018-02-08T06:39:41.463Z,56.63
2018-02-08T06:42:09.415Z,65.95
2018-02-08T06:44:37.393Z,62.15
2018-02-08T06:47:05.334Z,60.97
2018-02-08T06:49:33.305Z,59.63
2018-02-08T06:52:01.271Z,65.72
2018-02-08T06:54:29.250Z,69.30
2018-02-08T06:56:57.271Z,60.78
2018-02-08T06:59:25.239Z,64.35
2018-02-08T07:01:53.188Z,66.90
2018-02-08T07:04:21.141Z,61.42
2018-02-08T07:06:49.123Z,66.57
2018-02-08T07:09:17.107Z,62.45
2018-02-08T07:11:45.054Z,65.75
2018-02-08T07:14:13.035Z,60.70
2018-02-08T07:16:40.986Z,65.68
2018-02-08T07:19:08.924Z,72.25
2018-02-08T07:21:37.180Z,65.00
2018-02-08T07:24:05.168Z,56.65
2018-02-08T07:26:33.130Z,64.37
2018-02-08T07:29:01.164Z,65.15
2018-02-08T07:31:29.143Z,62.88
2018-02-08T07:33:57.100Z,60.88
2018-02-08T07:36:25.071Z,82.22
2018-02-08T07:38:53.055Z,58.03
2018-02-08T07:41:20.994Z,65.80
2018-02-08T07:43:49.014Z,66.20
2018-02-08T07:46:17.007Z,70.75
2018-02-08T07:48:44.996Z,62.05
2018-02-08T07:51:12.984Z,54.80
2018-02-08T07:53:40.963Z,61.22
2018-02-08T07:56:08.907Z,66.97
2018-02-08T07:58:36.886Z,60.25
2018-02-08T08:01:05.902Z,58.78
2018-02-08T08:03:33.906Z,66.93
2018-02-08T08:06:01.878Z,66.28
2018-02-08T08:08:29.835Z,70.28
2018-02-08T08:10:57.830Z,71.45
2018-02-08T08:13:25.815Z,76.10
2018-02-08T08:15:53.806Z,67.05
2018-02-08T08:18:21.769Z,65.70
2018-02-08T08:20:49.783Z,74.25
2018-02-08T08:23:17.750Z,60.40
2018-02-08T08:25:45.682Z,63.33
2018-02-08T08:28:13.685Z,60.35
2018-02-08T08:30:41.661Z,60.45
2018-02-08T08:33:10.671Z,67.12
2018-02-08T08:35:38.682Z,61.37
2018-02-08T08:38:06.631Z,59.13
2018-02-08T08:40:34.613Z,71.93
2018-02-08T08:43:02.640Z,61.63
2018-02-08T08:45:30.662Z,59.42
2018-02-08T08:47:58.746Z,61.78
2018-02-08T08:50:26.734Z,64.53
2018-02-08T08:52:54.767Z,76.47
2018-02-08T08:55:22.711Z,64.37
2018-02-08T08:57:50.679Z,60.55
2018-02-08T09:00:18.673Z,60.30
2018-02-08T09:02:46.626Z,65.53
2018-02-08T09:05:14.588Z,64.72
2018-02-08T09:07:42.555Z,61.15
2018-02-08T09:10:10.518Z,68.72
2018-02-08T09:12:38.459Z,51.37
2018-02-08T09:15:06.437Z,56.35
2018-02-08T09:17:34.403Z,52.70
2018-02-08T09:20:02.402Z,61.80
2018-02-08T09:22:30.366Z,54.08
2018-02-08T09:24:58.402Z,57.20
2018-02-08T09:27:26.346Z,63.05
2018-02-08T09:29:54.318Z,60.97
2018-02-08T09:32:22.329Z,58.65
2018-02-08T09:34:50.234Z,70.60
2018-02-08T09:37:19.186Z,64.93
2018-02-08T09:39:47.218Z,62.88
2018-02-08T09:42:15.166Z,59.90
2018-02-08T09:44:43.169Z,55.25
2018-02-08T09:47:11.158Z,58.35
2018-02-08T09:49:39.124Z,64.00
2018-02-08T09:52:07.085Z,64.12
2018-02-08T09:54:35.072Z,59.40
2018-02-08T09:57:03.049Z,63.17
2018-02-08T09:59:31.014Z,61.37
2018-02-08T10:01:58.990Z,53.38
2018-02-08T10:04:27.017Z,57.85
2018-02-08T10:06:55.509Z,57.70
2018-02-08T10:09:24.562Z,57.08
2018-02-08T10:11:52.495Z,64.18
2018-02-08T10:14:20.476Z,54.25
2018-02-08T10:16:48.446Z,55.28
2018-02-08T10:19:16.398Z,61.42
2018-02-08T10:21:45.450Z,67.22
2018-02-08T10:24:14.457Z,59.47
2018-02-08T10:26:42.396Z,62.75
2018-02-08T10:29:11.410Z,52.00
2018-02-08T10:31:39.366Z,57.90
2018-02-08T10:34:07.358Z,62.00
2018-02-08T10:36:35.319Z,62.08
2018-02-08T10:39:03.317Z,63.08
2018-02-08T10:41:31.279Z,54.00
2018-02-08T10:43:59.258Z,56.45
2018-02-08T10:46:27.224Z,70.15
2018-02-08T10:48:55.199Z,52.65
2018-02-08T10:51:24.170Z,61.15
2018-02-08T10:53:52.131Z,70.45
2018-02-08T10:56:20.115Z,60.20
2018-02-08T10:58:48.075Z,63.13
2018-02-08T11:01:16.039Z,65.80
2018-02-08T11:03:45.125Z,57.28
2018-02-08T11:06:13.100Z,61.50
2018-02-08T11:08:41.120Z,69.53
2018-02-08T11:11:09.151Z,56.30
2018-02-08T11:13:37.146Z,61.50
2018-02-08T11:16:05.130Z,64.70
2018-02-08T11:18:33.083Z,58.03
2018-02-08T11:21:01.040Z,59.80
2018-02-08T11:23:29.050Z,57.38
2018-02-08T11:25:57.045Z,58.20
2018-02-08T11:28:24.995Z,57.38
2018-02-08T11:30:52.986Z,70.15
2018-02-08T11:33:20.966Z,62.75
2018-02-08T11:35:50.005Z,62.20
2018-02-08T11:38:17.943Z,54.75
2018-02-08T11:40:45.890Z,59.97
2018-02-08T11:43:13.859Z,62.75
2018-02-08T11:45:41.811Z,56.00
2018-02-08T11:48:09.766Z,60.35
2018-02-08T11:50:37.761Z,58.97
2018-02-08T11:53:05.726Z,52.70
2018-02-08T11:55:33.674Z,59.13
2018-02-08T11:58:01.611Z,60.00
2018-02-08T12:00:29.607Z,61.10
2018-02-08T12:02:57.572Z,60.85
2018-02-08T12:05:25.568Z,60.08
2018-02-08T12:07:53.532Z,61.30
2018-02-08T12:10:21.486Z,62.70
2018-02-08T12:12:49.473Z,63.85
2018-02-08T12:15:17.376Z,67.53
2018-02-08T12:17:45.323Z,61.83
2018-02-08T12:20:13.310Z,56.15
2018-02-08T12:22:41.279Z,62.60
2018-02-08T12:25:09.222Z,64.82
2018-02-08T12:27:37.186Z,61.50
2018-02-08T12:30:05.166Z,61.58
2018-02-08T12:32:33.161Z,56.17
2018-02-08T12:35:01.155Z,60.10
2018-02-08T12:37:29.158Z,58.67
2018-02-08T12:39:57.124Z,58.95
2018-02-08T12:42:25.063Z,60.95
2018-02-08T12:44:53.067Z,59.70
2018-02-08T12:47:21.019Z,59.78
2018-02-08T12:49:49.823Z,58.80
2018-02-08T12:52:17.824Z,63.53
2018-02-08T12:54:45.791Z,57.92
2018-02-08T12:57:13.828Z,56.55
2018-02-08T12:59:41.777Z,56.50
2018-02-08T13:02:09.759Z,59.00
2018-02-08T13:04:37.743Z,70.50
2018-02-08T13:07:05.719Z,60.97
2018-02-08T13:09:33.671Z,62.42
2018-02-08T13:12:01.671Z,60.78
2018-02-08T13:14:29.632Z,78.18
2018-02-08T13:16:57.595Z,64.90
2018-02-08T13:19:25.570Z,55.28
2018-02-08T13:21:53.519Z,56.85
2018-02-08T13:24:21.511Z,62.42
2018-02-08T13:26:49.434Z,57.70
2018-02-08T13:29:17.420Z,60.05
2018-02-08T13:31:45.375Z,62.33
2018-02-08T13:34:13.374Z,58.47
2018-02-08T13:36:42.410Z,61.88
2018-02-08T13:39:16.429Z,60.08
2018-02-08T13:41:44.422Z,67.20
2018-02-08T13:44:12.375Z,66.95
2018-02-08T13:46:40.383Z,63.95
2018-02-08T13:49:08.339Z,60.65
2018-02-08T13:51:39.267Z,65.97
2018-02-08T13:54:22.151Z,65.95
2018-02-08T13:56:56.210Z,63.80
2018-02-08T13:59:39.130Z,60.55
2018-02-08T14:02:07.939Z,54.17
2018-02-08T14:04:35.912Z,60.28
2018-02-08T14:07:03.891Z,64.62
2018-02-08T14:09:31.815Z,70.57
2018-02-08T14:11:59.779Z,64.22
2018-02-08T14:14:27.761Z,77.07
2018-02-08T14:16:55.747Z,52.38
2018-02-08T14:19:23.714Z,61.13
2018-02-08T14:21:51.671Z,62.55
2018-02-08T14:24:19.629Z,72.12
2018-02-08T14:26:47.639Z,63.78
2018-02-08T14:29:15.588Z,57.90
2018-02-08T14:31:43.583Z,58.40
2018-02-08T14:34:11.551Z,60.90
2018-02-08T14:36:39.539Z,60.22
2018-02-08T14:39:08.635Z,60.38
2018-02-08T14:41:36.590Z,61.90
2018-02-08T14:44:04.563Z,58.13
2018-02-08T14:46:32.552Z,65.62
2018-02-08T14:49:00.474Z,65.43
2018-02-08T14:51:28.447Z,60.50
2018-02-08T14:53:56.405Z,70.65
2018-02-08T14:56:24.347Z,61.33
2018-02-08T14:58:52.354Z,62.53
2018-02-08T15:01:20.343Z,67.25
2018-02-08T15:03:48.278Z,64.45
2018-02-08T15:06:16.222Z,66.10
2018-02-08T15:08:44.222Z,58.28
2018-02-08T15:11:12.190Z,60.80
2018-02-08T15:13:40.102Z,67.32
2018-02-08T15:16:08.102Z,66.37
2018-02-08T15:18:36.099Z,67.60
2018-02-08T15:21:04.091Z,63.42
2018-02-08T15:23:32.068Z,69.20
2018-02-08T15:26:00.047Z,65.37
2018-02-08T15:28:28.044Z,59.83
2018-02-08T15:30:56.010Z,67.72
2018-02-08T15:33:23.969Z,65.05
2018-02-08T15:35:51.951Z,73.68
2018-02-08T15:38:19.911Z,65.07
2018-02-08T15:40:47.842Z,65.20
2018-02-08T15:43:15.807Z,61.55
2018-02-08T15:45:43.771Z,67.32
2018-02-08T15:48:11.719Z,64.53
2018-02-08T15:50:39.686Z,63.42
2018-02-08T15:53:07.661Z,66.00
2018-02-08T15:55:35.570Z,71.85
2018-02-08T15:58:03.557Z,66.93
2018-02-08T16:00:31.518Z,68.07
2018-02-08T16:02:59.503Z,71.03
2018-02-08T16:05:27.524Z,67.57
2018-02-08T16:07:55.458Z,70.22
2018-02-08T16:10:23.439Z,64.00
2018-02-08T16:12:51.389Z,66.97
2018-02-08T16:15:19.364Z,70.28
2018-02-08T16:17:47.360Z,68.45
2018-02-08T16:20:15.340Z,72.12
2018-02-08T16:22:43.354Z,70.65
2018-02-08T16:25:11.309Z,69.85
2018-02-08T16:27:39.259Z,66.15
2018-02-08T16:30:07.284Z,66.00
2018-02-08T16:32:35.261Z,71.65
2018-02-08T16:35:03.246Z,67.00
2018-02-08T16:37:31.195Z,69.60
2018-02-08T16:40:00.059Z,57.45
2018-02-08T16:42:28.079Z,73.03
2018-02-08T16:44:56.058Z,79.20
2018-02-08T16:47:24.002Z,71.72
2018-02-08T16:49:51.964Z,68.47
2018-02-08T16:52:19.933Z,70.18
2018-02-08T16:54:47.842Z,80.70
2018-02-08T16:57:15.834Z,77.00
2018-02-08T16:59:43.754Z,69.85
2018-02-08T17:02:11.722Z,64.85
2018-02-08T17:04:39.739Z,71.95
2018-02-08T17:07:07.722Z,68.12
2018-02-08T17:09:35.685Z,66.68
2018-02-08T17:12:03.658Z,79.43
2018-02-08T17:14:31.643Z,64.90
2018-02-08T17:16:59.626Z,67.20
2018-02-08T17:19:27.578Z,76.15
2018-02-08T17:21:55.512Z,75.78
2018-02-08T17:24:23.507Z,71.55
2018-02-08T17:26:52.507Z,70.12
2018-02-08T17:29:20.631Z,77.85
2018-02-08T17:31:48.592Z,72.70
2018-02-08T17:34:16.586Z,72.37
2018-02-08T17:36:44.598Z,72.22
2018-02-08T17:39:12.523Z,57.05
2018-02-08T17:41:40.500Z,62.70
2018-02-08T17:44:08.479Z,68.90
2018-02-08T17:46:36.427Z,65.72
2018-02-08T17:49:05.447Z,71.30
2018-02-08T17:51:33.592Z,65.87
2018-02-08T17:54:01.563Z,68.35
2018-02-08T17:56:29.511Z,67.10
2018-02-08T17:58:57.534Z,73.07
2018-02-08T18:01:25.523Z,63.78
2018-02-08T18:03:53.510Z,73.57
2018-02-08T18:06:21.493Z,77.03
2018-02-08T18:08:49.487Z,70.07
2018-02-08T18:11:17.479Z,77.28
2018-02-08T18:13:45.463Z,67.68
2018-02-08T18:16:13.419Z,73.55
2018-02-08T18:18:41.577Z,73.50
2018-02-08T18:21:09.621Z,65.45
2018-02-08T18:23:37.598Z,72.18
2018-02-08T18:26:05.584Z,82.90
2018-02-08T18:28:33.554Z,66.75
2018-02-08T18:31:01.549Z,66.37
2018-02-08T18:33:29.527Z,79.65
2018-02-08T18:35:57.499Z,77.43
2018-02-08T18:38:25.438Z,75.80
2018-02-08T18:40:53.422Z,71.47
2018-02-08T18:43:21.419Z,74.57
2018-02-08T18:45:49.463Z,70.35
2018-02-08T18:48:17.403Z,73.93
2018-02-08T18:50:45.639Z,68.22
2018-02-08T18:53:13.775Z,83.28
2018-02-08T18:55:41.879Z,78.30
2018-02-08T18:58:09.871Z,74.50
2018-02-08T19:00:39.226Z,70.85
2018-02-08T19:03:07.311Z,67.78
2018-02-08T19:05:35.294Z,69.57
2018-02-08T19:08:03.303Z,78.78
2018-02-08T19:10:32.248Z,75.80
2018-02-08T19:13:00.245Z,71.43
2018-02-08T19:15:28.838Z,60.42
2018-02-08T19:17:57.286Z,69.43
2018-02-08T19:20:25.824Z,74.37
2018-02-08T19:22:53.995Z,66.18
2018-02-08T19:25:22.041Z,80.05
2018-02-08T19:27:49.982Z,79.72
2018-02-08T19:30:17.954Z,72.95
2018-02-08T19:32:45.936Z,65.87
2018-02-08T19:35:13.923Z,87.47
2018-02-08T19:37:42.982Z,69.62
2018-02-08T19:40:11.263Z,71.87
2018-02-08T19:42:39.322Z,68.25
2018-02-08T19:45:07.309Z,75.35
2018-02-08T19:47:35.283Z,71.95
2018-02-08T19:50:03.223Z,76.45
2018-02-08T19:52:31.171Z,82.72
2018-02-08T19:54:59.155Z,76.32
2018-02-08T19:57:27.118Z,60.10
2018-02-08T19:59:55.127Z,73.87
2018-02-08T20:02:23.090Z,78.07
2018-02-08T20:04:51.087Z,84.47
2018-02-08T20:07:19.032Z,66.72
2018-02-08T20:09:47.194Z,67.72
2018-02-08T20:12:15.186Z,63.90
2018-02-08T20:14:51.492Z,62.75
2018-02-08T20:17:19.473Z,72.82
2018-02-08T20:19:47.455Z,78.43
2018-02-08T20:22:15.466Z,69.60
2018-02-08T20:24:43.431Z,63.10
2018-02-08T20:27:11.399Z,68.15
2018-02-08T20:29:39.364Z,72.70
2018-02-08T20:32:07.368Z,75.30
2018-02-08T20:34:35.364Z,81.60
2018-02-08T20:37:03.359Z,77.20
2018-02-08T20:39:31.325Z,76.72
2018-02-08T20:41:59.269Z,67.45
2018-02-08T20:44:27.301Z,71.53
2018-02-08T20:46:55.395Z,69.50
2018-02-08T20:49:23.367Z,73.37
2018-02-08T20:51:51.338Z,65.37
2018-02-08T20:54:19.323Z,68.85
2018-02-08T20:56:47.306Z,72.35
2018-02-08T20:59:15.279Z,71.75
2018-02-08T21:01:43.316Z,71.37
2018-02-08T21:04:11.306Z,75.95
2018-02-08T21:06:39.301Z,67.22
2018-02-08T21:09:07.290Z,66.05
2018-02-08T21:11:35.330Z,66.12
2018-02-08T21:14:04.369Z,71.03
2018-02-08T21:16:32.363Z,71.00
2018-02-08T21:19:00.367Z,76.53
2018-02-08T21:21:28.368Z,76.28
2018-02-08T21:23:56.340Z,69.53
2018-02-08T21:26:24.341Z,65.93
2018-02-08T21:28:52.322Z,70.20
2018-02-08T21:31:20.286Z,61.88
2018-02-08T21:33:48.294Z,68.32
2018-02-08T21:36:16.269Z,68.10
2018-02-08T21:38:44.270Z,65.95
2018-02-08T21:41:12.234Z,67.40
2018-02-08T21:43:40.272Z,65.82
2018-02-08T21:46:08.232Z,66.35
2018-02-08T21:48:36.216Z,66.37
2018-02-08T21:51:04.203Z,78.75
2018-02-08T21:53:32.184Z,70.07
2018-02-08T21:56:00.126Z,68.35
2018-02-08T21:58:28.105Z,75.80
2018-02-08T22:00:56.158Z,71.25
2018-02-08T22:03:24.190Z,67.32
2018-02-08T22:05:52.166Z,68.00
2018-02-08T22:08:20.199Z,63.87
2018-02-08T22:10:48.198Z,56.70
2018-02-08T22:13:16.158Z,59.35
2018-02-08T22:15:44.140Z,67.65
2018-02-08T22:18:13.224Z,66.68
2018-02-08T22:20:41.213Z,72.95
2018-02-08T22:23:09.222Z,72.97
2018-02-08T22:25:37.212Z,71.25
2018-02-08T22:28:05.209Z,87.32
2018-02-08T22:30:33.176Z,65.53
2018-02-08T22:33:01.132Z,69.62
2018-02-08T22:35:29.153Z,70.93
2018-02-08T22:37:57.179Z,69.87
2018-02-08T22:40:25.149Z,67.40
2018-02-08T22:42:53.214Z,65.32
2018-02-08T22:45:21.290Z,72.10
2018-02-08T22:47:49.224Z,62.83
2018-02-08T22:50:17.218Z,73.68
2018-02-08T22:52:45.193Z,78.87
2018-02-08T22:55:13.126Z,68.87
2018-02-08T22:57:41.067Z,66.95
2018-02-08T23:00:09.052Z,66.75
2018-02-08T23:02:37.006Z,64.82
2018-02-08T23:05:04.958Z,72.97
2018-02-08T23:07:32.916Z,68.53
2018-02-08T23:10:00.886Z,72.43
2018-02-08T23:12:29.891Z,67.00
2018-02-08T23:14:57.892Z,81.50
2018-02-08T23:17:25.946Z,60.03
2018-02-08T23:19:53.895Z,69.20
2018-02-08T23:22:21.831Z,78.25
2018-02-08T23:24:49.774Z,62.95
2018-02-08T23:27:19.659Z,69.10
2018-02-08T23:29:47.627Z,75.05
2018-02-08T23:32:15.619Z,53.05
2018-02-08T23:34:43.879Z,61.55
2018-02-08T23:37:11.967Z,61.08
2018-02-08T23:39:39.972Z,73.30
2018-02-08T23:42:07.960Z,82.88
2018-02-08T23:44:35.902Z,72.65
2018-02-08T23:47:04.185Z,62.35
2018-02-08T23:49:32.208Z,70.70
2018-02-08T23:52:00.160Z,64.47
2018-02-08T23:54:28.175Z,72.60
2018-02-08T23:56:56.138Z,73.37
2018-02-08T23:59:25.134Z,68.97
